Time;durP1;ratioP1;P1;durP2;ratioP2;P2;SDS_P1;SDS_P2;PMS_P1;PMS_P2;Temp;Humidity;BMP_temperature;BMP_pressure;BME280_temperature;BME280_humidity;BME280_pressure;Samples;Min_cycle;Max_cycle;Signal;HPM_P1;HPM_P2
2022/02/08 00:01:55;;;;;;;7.03;2.63;;;1.50;92.00;;;;;;5079633;28;20056;-78
2022/02/08 00:04:21;;;;;;;6.55;1.83;;;1.40;92.30;;;;;;5083817;28;20542;-78
2022/02/08 00:06:47;;;;;;;2.05;1.02;;;1.40;92.50;;;;;;5064881;28;20024;-78
2022/02/08 00:09:15;;;;;;;5.05;1.20;;;1.30;92.50;;;;;;5080506;28;20032;-79
2022/02/08 00:11:41;;;;;;;6.25;1.63;;;1.30;92.60;;;;;;5084687;28;20084;-78
2022/02/08 00:14:07;;;;;;;5.40;1.52;;;1.20;92.70;;;;;;5084289;28;20078;-79
2022/02/08 00:16:33;;;;;;;6.78;1.30;;;1.20;92.90;;;;;;5083078;28;20043;-78
2022/02/08 00:18:59;;;;;;;4.07;1.40;;;1.20;93.00;;;;;;5087235;28;20060;-78
2022/02/08 00:21:25;;;;;;;4.68;1.65;;;1.10;93.10;;;;;;5084850;28;20025;-77
2022/02/08 00:23:51;;;;;;;7.82;2.15;;;1.10;93.10;;;;;;5056067;28;20372;-78
2022/02/08 00:26:16;;;;;;;5.88;1.90;;;1.10;93.00;;;;;;5085287;28;20032;-78
2022/02/08 00:28:42;;;;;;;6.22;1.38;;;1.10;93.00;;;;;;5081844;28;20028;-77
2022/02/08 00:31:08;;;;;;;6.78;1.90;;;1.10;93.10;;;;;;5083861;28;20020;-78
2022/02/08 00:33:34;;;;;;;5.18;1.48;;;1.10;93.10;;;;;;5063208;28;20021;-79
2022/02/08 00:36:00;;;;;;;7.32;1.48;;;1.00;93.20;;;;;;5082815;28;20032;-79
2022/02/08 00:38:27;;;;;;;5.82;1.35;;;1.00;93.30;;;;;;5080880;28;20033;-80
2022/02/08 00:40:58;;;;;;;6.82;1.10;;;0.90;93.50;;;;;;5082871;28;20478;-78
2022/02/08 00:43:28;;;;;;;7.55;1.83;;;0.90;93.60;;;;;;5083451;28;20387;-78
2022/02/08 00:46:02;;;;;;;6.97;1.63;;;0.90;93.70;;;;;;5082590;28;20020;-78
2022/02/08 00:48:31;;;;;;;2.00;1.17;;;0.80;93.90;;;;;;5083027;28;20020;-77
2022/02/08 00:50:57;;;;;;;4.07;1.52;;;0.80;94.20;;;;;;5083004;28;20017;-78
2022/02/08 00:53:23;;;;;;;10.93;1.50;;;0.80;94.20;;;;;;5074180;28;20073;-79
2022/02/08 00:55:50;;;;;;;9.70;2.22;;;0.70;94.30;;;;;;5081953;28;20151;-78
2022/02/08 00:58:15;;;;;;;5.22;1.25;;;0.70;94.30;;;;;;5060566;28;20032;-80
2022/02/08 01:00:41;;;;;;;6.53;1.77;;;0.70;94.40;;;;;;5080484;28;20025;-79
2022/02/08 01:03:08;;;;;;;6.72;1.65;;;0.70;94.50;;;;;;5092677;22;20068;-81
2022/02/08 01:05:40;;;;;;;7.22;1.70;;;0.60;94.70;;;;;;5050420;28;20040;-80
2022/02/08 01:08:05;;;;;;;9.00;1.60;;;0.60;94.70;;;;;;5044556;28;20052;-80
2022/02/08 01:10:37;;;;;;;5.57;1.75;;;0.60;94.80;;;;;;5044995;28;20022;-81
2022/02/08 01:13:03;;;;;;;4.47;1.70;;;0.60;94.90;;;;;;5026897;28;20021;-82
2022/02/08 01:15:29;;;;;;;7.22;1.67;;;0.60;95.00;;;;;;5026173;28;20129;-81
2022/02/08 01:17:57;;;;;;;4.18;1.40;;;0.60;95.00;;;;;;5026140;28;20113;-82
2022/02/08 01:20:31;;;;;;;4.50;1.77;;;0.60;95.10;;;;;;5050848;28;20026;-81
2022/02/08 01:22:59;;;;;;;2.65;1.30;;;0.60;95.20;;;;;;5074079;28;20065;-83
2022/02/08 01:25:32;;;;;;;7.07;1.50;;;0.60;95.20;;;;;;5064067;28;20025;-82
2022/02/08 01:28:07;;;;;;;8.60;1.63;;;0.50;95.30;;;;;;5045383;28;20089;-80
2022/02/08 01:30:46;;;;;;;3.60;1.48;;;0.50;95.40;;;;;;5045072;28;20028;-82
2022/02/08 01:38:21;;;;;;;2.33;0.95;;;0.50;95.50;;;;;;5061283;28;20444;-80
2022/02/08 01:47:20;;;;;;;4.50;1.30;;;0.40;95.60;;;;;;5066013;28;20027;-82
2022/02/08 01:49:14;;;;;;;4.32;1.40;;;0.40;95.70;;;;;;5050033;28;20060;-82
2022/02/08 01:51:40;;;;;;;5.88;1.67;;;0.40;95.60;;;;;;5070025;28;20141;-81
2022/02/08 01:54:06;;;;;;;3.15;1.33;;;0.40;95.70;;;;;;5077770;28;20117;-81
2022/02/08 01:56:32;;;;;;;6.00;1.20;;;0.50;95.70;;;;;;5085240;28;20052;-81
2022/02/08 01:58:58;;;;;;;5.32;0.93;;;0.50;95.60;;;;;;5067610;28;20024;-82
2022/02/08 02:01:24;;;;;;;4.10;1.20;;;0.50;95.60;;;;;;5085542;28;20051;-82
2022/02/08 02:03:49;;;;;;;3.55;1.02;;;0.60;95.60;;;;;;5067619;28;20036;-82
2022/02/08 02:06:15;;;;;;;6.95;1.02;;;0.70;95.50;;;;;;5086392;28;20035;-82
2022/02/08 02:08:41;;;;;;;2.45;0.98;;;0.80;95.30;;;;;;5090719;28;20493;-80
2022/02/08 02:11:09;;;;;;;5.55;1.00;;;0.90;95.10;;;;;;5093781;28;20028;-82
2022/02/08 02:13:43;;;;;;;8.52;1.75;;;1.00;94.90;;;;;;5088099;28;20024;-82
2022/02/08 02:16:11;;;;;;;4.07;0.75;;;1.10;94.60;;;;;;5090515;28;20021;-81
2022/02/08 02:18:36;;;;;;;5.18;1.90;;;1.20;94.30;;;;;;5095014;28;20019;-81
2022/02/08 02:21:04;;;;;;;5.03;1.58;;;1.30;94.20;;;;;;5073481;28;20044;-82
2022/02/08 02:23:30;;;;;;;3.53;1.23;;;1.30;94.10;;;;;;5060806;28;20057;-81
2022/02/08 02:25:57;;;;;;;2.35;0.88;;;1.40;93.90;;;;;;5076194;28;20032;-81
2022/02/08 02:28:22;;;;;;;6.88;1.42;;;1.40;93.80;;;;;;5088773;28;20084;-81
2022/02/08 02:30:48;;;;;;;3.78;1.02;;;1.50;93.50;;;;;;5086666;28;20042;-82
2022/02/08 02:33:15;;;;;;;4.75;1.25;;;1.50;93.40;;;;;;5084005;28;20353;-81
2022/02/08 02:35:42;;;;;;;4.05;1.05;;;1.50;93.20;;;;;;5065603;28;20694;-82
2022/02/08 02:38:08;;;;;;;3.28;1.40;;;1.60;92.80;;;;;;5087269;28;20035;-82
2022/02/08 02:40:36;;;;;;;3.90;0.80;;;1.60;92.80;;;;;;5085790;28;20044;-82
2022/02/08 02:43:02;;;;;;;9.23;1.13;;;1.70;92.60;;;;;;5084898;28;20021;-83
2022/02/08 02:45:28;;;;;;;2.17;0.95;;;1.70;92.40;;;;;;5067419;28;20035;-82
2022/02/08 02:47:54;;;;;;;6.18;1.25;;;1.70;92.40;;;;;;5084736;28;20078;-82
2022/02/08 02:50:22;;;;;;;5.28;1.00;;;1.70;92.30;;;;;;5085269;28;20462;-83
2022/02/08 02:52:48;;;;;;;3.15;0.80;;;1.70;92.00;;;;;;5079432;28;20025;-82
2022/02/08 02:55:15;;;;;;;4.07;1.15;;;1.80;92.00;;;;;;5081691;28;20035;-81
2022/02/08 02:57:43;;;;;;;6.13;1.00;;;1.70;92.10;;;;;;5084926;28;20453;-82
2022/02/08 03:00:15;;;;;;;7.07;1.27;;;1.80;92.10;;;;;;5084535;28;20032;-82
2022/02/08 03:18:46;;;;;;;4.22;1.00;;;1.90;91.20;;;;;;5084326;28;20082;-83
2022/02/08 03:21:12;;;;;;;4.72;0.75;;;1.90;91.30;;;;;;5084086;28;20122;-81
2022/02/08 03:23:39;;;;;;;3.15;1.00;;;1.90;91.30;;;;;;5077233;28;20104;-81
2022/02/08 03:26:05;;;;;;;4.75;1.00;;;1.90;91.20;;;;;;5069743;28;20070;-81
2022/02/08 03:28:31;;;;;;;4.97;1.00;;;1.90;91.20;;;;;;5084201;28;20048;-81
2022/02/08 03:30:57;;;;;;;4.53;0.80;;;2.00;91.10;;;;;;5094781;28;20043;-79
2022/02/08 03:33:25;;;;;;;2.47;0.98;;;1.90;91.10;;;;;;5094618;28;20032;-80
2022/02/08 03:35:53;;;;;;;3.70;0.82;;;2.00;91.10;;;;;;5091058;28;20531;-81
2022/02/08 03:38:26;;;;;;;2.58;0.63;;;2.00;91.10;;;;;;5084082;28;20163;-82
2022/02/08 03:40:53;;;;;;;3.40;0.93;;;2.00;91.10;;;;;;5083643;28;20021;-82
2022/02/08 03:45:51;;;;;;;3.42;0.52;;;2.00;91.00;;;;;;5081544;28;20107;-81
2022/02/08 03:48:19;;;;;;;2.13;0.63;;;2.00;90.90;;;;;;5081219;28;20222;-82
2022/02/08 03:50:51;;;;;;;4.57;0.90;;;2.00;90.90;;;;;;5081536;28;20028;-81
2022/02/08 03:53:17;;;;;;;2.60;0.57;;;2.00;90.90;;;;;;5073187;28;20453;-81
2022/02/08 03:55:43;;;;;;;5.45;0.80;;;2.10;90.90;;;;;;5066200;28;20020;-83
2022/02/08 03:58:10;;;;;;;2.80;0.70;;;2.10;90.90;;;;;;5082647;28;20055;-82
2022/02/08 04:00:47;;;;;;;1.88;0.60;;;2.10;90.80;;;;;;5083253;28;20513;-82
2022/02/08 04:03:12;;;;;;;2.95;0.90;;;2.10;90.70;;;;;;5082945;28;20036;-82
2022/02/08 04:05:43;;;;;;;5.70;0.90;;;2.10;90.70;;;;;;5082641;28;20020;-82
2022/02/08 04:08:12;;;;;;;5.22;0.82;;;2.10;90.60;;;;;;5083787;28;20021;-82
2022/02/08 04:10:39;;;;;;;2.45;0.70;;;2.10;90.70;;;;;;5078256;28;20120;-81
2022/02/08 04:13:12;;;;;;;6.72;1.35;;;2.10;90.70;;;;;;5079153;28;20017;-82
2022/02/08 04:42:06;;;;;;;2.10;0.80;;;2.20;90.40;;;;;;5081400;28;20040;-82
2022/02/08 04:44:46;;;;;;;4.72;0.80;;;2.20;90.50;;;;;;5063963;28;20024;-82
2022/02/08 04:47:19;;;;;;;2.10;0.55;;;2.30;90.20;;;;;;5089549;28;20040;-81
2022/02/08 04:49:44;;;;;;;2.53;0.88;;;2.30;90.20;;;;;;5071871;28;20028;-81
2022/02/08 04:52:13;;;;;;;8.38;1.35;;;2.30;90.20;;;;;;5052632;28;20457;-82
2022/02/08 04:57:50;;;;;;;4.68;0.80;;;2.30;89.40;;;;;;5015033;28;20025;-81
2022/02/08 05:00:31;;;;;;;6.35;1.15;;;2.30;89.30;;;;;;5044978;28;20615;-82
2022/02/08 05:49:02;;;;;;;4.43;0.93;;;2.60;84.70;;;;;;5088201;28;20028;-85
2022/02/08 05:51:44;;;;;;;3.05;0.65;;;2.60;84.80;;;;;;5064017;28;20025;-85
2022/02/08 05:54:10;;;;;;;3.50;1.10;;;2.70;84.20;;;;;;5077271;28;20469;-85
2022/02/08 05:56:35;;;;;;;4.25;1.02;;;2.70;84.00;;;;;;5087770;28;20047;-85
2022/02/08 05:59:01;;;;;;;4.68;0.80;;;2.70;84.00;;;;;;5086640;28;20033;-85
2022/02/08 06:01:30;;;;;;;3.78;0.63;;;2.80;83.70;;;;;;5080330;28;20448;-85
2022/02/08 06:03:59;;;;;;;5.18;0.70;;;2.80;83.80;;;;;;5066016;28;20476;-80
2022/02/08 06:06:25;;;;;;;3.03;0.90;;;2.70;83.70;;;;;;5046517;28;20025;-79
2022/02/08 06:08:51;;;;;;;12.48;1.10;;;2.70;83.50;;;;;;5060818;28;20035;-80
2022/02/08 06:11:17;;;;;;;3.17;0.90;;;2.80;83.60;;;;;;5061014;28;20563;-80
2022/02/08 06:13:43;;;;;;;4.22;0.82;;;2.80;83.50;;;;;;5041951;28;20116;-80
2022/02/08 06:16:16;;;;;;;5.80;1.30;;;2.80;83.60;;;;;;5043810;28;20112;-77
2022/02/08 06:18:42;;;;;;;7.50;1.02;;;2.80;83.10;;;;;;5044419;28;20466;-83
2022/02/08 06:21:08;;;;;;;4.95;0.65;;;2.90;82.50;;;;;;5065165;28;20031;-83
2022/02/08 06:23:34;;;;;;;3.22;1.00;;;3.00;82.20;;;;;;5081558;28;20115;-83
2022/02/08 06:25:59;;;;;;;1.25;0.57;;;2.90;82.40;;;;;;5064795;28;20057;-82
2022/02/08 06:28:25;;;;;;;4.00;1.10;;;3.00;82.20;;;;;;5064247;28;20029;-82
2022/02/08 06:30:52;;;;;;;2.22;1.02;;;3.00;82.40;;;;;;5066517;28;20049;-82
2022/02/08 06:33:18;;;;;;;4.43;1.13;;;2.90;82.50;;;;;;5067521;28;20017;-83
2022/02/08 06:35:44;;;;;;;7.88;1.23;;;3.00;82.60;;;;;;5068526;28;20029;-82
2022/02/08 06:38:13;;;;;;;5.97;1.00;;;3.00;82.30;;;;;;5050536;28;20047;-82
2022/02/08 06:40:40;;;;;;;7.97;1.35;;;3.10;81.60;;;;;;5068722;28;20048;-83
2022/02/08 06:43:06;;;;;;;2.72;0.73;;;3.10;81.50;;;;;;5066250;28;20028;-83
2022/02/08 06:45:32;;;;;;;7.47;1.60;;;3.10;81.60;;;;;;5048627;28;20075;-83
2022/02/08 06:48:00;;;;;;;3.67;0.90;;;3.10;81.40;;;;;;5071794;28;20083;-82
2022/02/08 06:50:26;;;;;;;3.03;0.80;;;3.10;81.30;;;;;;5074672;28;20028;-81
2022/02/08 06:52:52;;;;;;;5.53;0.90;;;3.10;81.50;;;;;;5083869;28;20028;-83
2022/02/08 06:55:18;;;;;;;5.28;1.00;;;3.10;81.20;;;;;;5066400;28;20020;-82
2022/02/08 06:57:50;;;;;;;4.85;0.93;;;3.20;81.20;;;;;;5081702;28;20059;-83
2022/02/08 07:00:24;;;;;;;11.15;1.77;;;3.20;81.30;;;;;;5065792;28;20028;-83
2022/02/08 07:02:50;;;;;;;6.65;2.15;;;3.20;81.10;;;;;;5083691;28;20145;-83
2022/02/08 07:05:17;;;;;;;6.47;1.52;;;3.20;81.20;;;;;;5085720;28;20048;-84
2022/02/08 07:07:43;;;;;;;3.50;0.93;;;3.20;80.70;;;;;;5066492;28;20021;-83
2022/02/08 07:10:09;;;;;;;2.03;0.85;;;3.30;80.40;;;;;;5084343;28;20074;-83
2022/02/08 07:12:35;;;;;;;7.93;0.98;;;3.30;80.30;;;;;;5085969;28;20021;-82
2022/02/08 07:15:07;;;;;;;2.40;0.82;;;3.40;80.40;;;;;;5086226;28;20446;-83
2022/02/08 07:17:33;;;;;;;2.70;1.10;;;3.40;80.70;;;;;;5085050;28;20019;-82
2022/02/08 07:19:59;;;;;;;9.10;1.60;;;3.40;80.30;;;;;;5067219;28;20025;-83
2022/02/08 07:22:25;;;;;;;4.22;1.05;;;3.40;80.10;;;;;;5081058;28;20508;-84
2022/02/08 07:24:50;;;;;;;2.28;0.75;;;3.50;80.00;;;;;;5077162;28;20540;-84
2022/02/08 07:27:16;;;;;;;5.40;1.02;;;3.50;79.20;;;;;;5066489;28;20103;-82
2022/02/08 07:29:50;;;;;;;3.65;1.35;;;3.60;79.20;;;;;;5065413;28;20023;-82
2022/02/08 07:32:17;;;;;;;4.47;0.90;;;3.60;78.70;;;;;;5084335;28;20036;-83
2022/02/08 07:34:52;;;;;;;1.83;0.85;;;3.70;78.20;;;;;;5084138;28;20020;-83
2022/02/08 07:37:34;;;;;;;4.85;1.63;;;3.70;78.40;;;;;;5083937;28;20036;-84
2022/02/08 07:40:05;;;;;;;4.22;1.52;;;3.80;78.10;;;;;;5084064;28;20035;-83
2022/02/08 07:42:30;;;;;;;4.18;1.55;;;3.90;77.20;;;;;;5067683;28;20036;-83
2022/02/08 07:44:56;;;;;;;5.90;0.98;;;3.90;77.00;;;;;;5083584;28;20028;-84
2022/02/08 07:47:22;;;;;;;7.88;1.25;;;3.90;77.10;;;;;;5085258;28;20028;-83
2022/02/08 07:49:48;;;;;;;6.20;1.10;;;3.90;77.10;;;;;;5086517;28;20048;-83
2022/02/08 07:52:13;;;;;;;8.02;1.02;;;4.00;77.20;;;;;;5063938;28;20036;-83
2022/02/08 07:54:45;;;;;;;6.07;1.23;;;4.00;76.90;;;;;;5073392;28;20047;-83
2022/02/08 07:57:11;;;;;;;6.47;1.58;;;4.00;76.80;;;;;;5068816;28;20039;-83
2022/02/08 07:59:37;;;;;;;5.28;1.13;;;4.10;76.40;;;;;;5085820;28;20100;-82
2022/02/08 08:02:03;;;;;;;5.70;1.33;;;4.10;76.50;;;;;;5085499;28;20044;-82
2022/02/08 08:04:29;;;;;;;3.20;1.13;;;4.20;75.90;;;;;;5088100;28;20039;-82
2022/02/08 08:06:54;;;;;;;9.70;1.55;;;4.20;76.10;;;;;;5066828;28;20078;-82
2022/02/08 08:09:26;;;;;;;6.43;1.20;;;4.30;75.70;;;;;;5081348;28;20780;-83
2022/02/08 08:11:53;;;;;;;3.53;0.82;;;4.40;74.30;;;;;;5066733;28;20028;-82
2022/02/08 08:14:26;;;;;;;4.60;1.10;;;4.40;74.40;;;;;;5046174;28;20052;-83
2022/02/08 08:17:03;;;;;;;4.43;1.30;;;4.40;74.30;;;;;;5063851;28;20021;-84
2022/02/08 08:19:37;;;;;;;4.95;1.08;;;4.50;73.40;;;;;;5062584;28;20025;-82
2022/02/08 08:22:08;;;;;;;5.78;1.10;;;4.50;72.60;;;;;;5070110;28;20032;-78
2022/02/08 08:24:34;;;;;;;4.43;1.05;;;4.60;72.50;;;;;;5075840;28;20028;-80
2022/02/08 08:27:00;;;;;;;3.00;1.42;;;4.70;71.20;;;;;;5066863;28;20069;-80
2022/02/08 08:29:26;;;;;;;5.88;2.17;;;4.70;71.20;;;;;;5084371;28;20050;-81
2022/02/08 08:31:52;;;;;;;4.63;0.93;;;4.90;70.20;;;;;;5066474;28;20035;-82
2022/02/08 08:34:18;;;;;;;3.83;1.15;;;4.90;68.90;;;;;;5083007;28;20028;-84
2022/02/08 08:36:46;;;;;;;3.67;1.02;;;4.90;69.30;;;;;;5066665;28;20025;-82
2022/02/08 08:39:18;;;;;;;5.45;0.90;;;5.00;69.40;;;;;;5084476;28;20025;-84
2022/02/08 08:41:50;;;;;;;7.10;1.05;;;5.10;68.90;;;;;;5082899;28;20043;-84
2022/02/08 08:44:41;;;;;;;2.75;1.27;;;5.20;67.50;;;;;;5064110;28;20031;-83
2022/02/08 08:52:12;;;;;;;1.83;0.75;;;5.40;64.90;;;;;;5069296;28;20077;-83
2022/02/08 08:54:38;;;;;;;3.45;0.80;;;5.40;64.60;;;;;;5045419;28;20045;-84
2022/02/08 08:57:06;;;;;;;4.00;0.80;;;5.40;64.60;;;;;;5043969;28;20029;-83
2022/02/08 08:59:32;;;;;;;5.45;0.80;;;5.50;64.50;;;;;;5059594;28;20025;-83
2022/02/08 09:01:58;;;;;;;3.13;0.98;;;5.60;62.90;;;;;;5061068;28;20095;-82
2022/02/08 09:04:29;;;;;;;4.57;0.90;;;5.70;62.00;;;;;;5061448;28;20105;-82
2022/02/08 09:06:55;;;;;;;2.05;0.60;;;5.80;61.70;;;;;;5062182;28;20025;-81
2022/02/08 09:09:24;;;;;;;4.35;0.68;;;5.90;60.40;;;;;;5060026;28;20027;-83
2022/02/08 09:11:59;;;;;;;3.33;0.82;;;6.00;60.00;;;;;;5048676;28;20021;-82
2022/02/08 09:23:18;;;;;;;2.80;0.70;;;6.60;58.10;;;;;;5068379;28;20047;-81
2022/02/08 09:31:01;;;;;;;2.15;0.80;;;6.80;56.20;;;;;;5070985;28;20028;-81
2022/02/08 09:33:27;;;;;;;3.80;0.93;;;6.90;54.40;;;;;;5054580;28;20075;-82
2022/02/08 09:35:54;;;;;;;2.85;0.60;;;7.00;53.60;;;;;;5054852;28;20021;-82
2022/02/08 09:38:21;;;;;;;1.92;1.00;;;7.10;53.60;;;;;;5071666;28;20029;-81
2022/02/08 09:40:50;;;;;;;2.65;0.70;;;7.20;53.60;;;;;;5052230;28;20499;-82
2022/02/08 09:43:18;;;;;;;2.10;0.80;;;7.20;52.00;;;;;;5067524;28;20025;-82
2022/02/08 09:45:46;;;;;;;3.85;0.95;;;7.10;51.40;;;;;;5045110;28;20060;-82
2022/02/08 09:48:17;;;;;;;2.22;1.08;;;7.30;51.40;;;;;;5046070;28;20465;-82
2022/02/08 09:50:43;;;;;;;2.88;1.00;;;7.50;50.70;;;;;;5065400;28;20048;-82
2022/02/08 09:53:14;;;;;;;1.95;0.77;;;7.60;50.50;;;;;;5055575;28;20033;-81
2022/02/08 09:55:41;;;;;;;2.47;1.20;;;7.60;49.70;;;;;;5064126;28;20016;-82
2022/02/08 09:58:08;;;;;;;2.78;0.77;;;7.50;49.10;;;;;;5047338;28;20037;-81
2022/02/08 10:00:36;;;;;;;2.25;0.52;;;7.40;48.70;;;;;;5046955;28;20024;-82
2022/02/08 10:03:14;;;;;;;1.77;0.85;;;7.30;48.90;;;;;;5049516;28;20041;-82
2022/02/08 10:05:53;;;;;;;6.55;0.73;;;7.30;48.90;;;;;;5067491;28;20017;-80
2022/02/08 10:08:20;;;;;;;9.55;1.30;;;7.30;49.10;;;;;;5066172;28;20029;-81
2022/02/08 10:10:47;;;;;;;7.22;1.05;;;7.30;47.60;;;;;;5047910;28;20032;-82
2022/02/08 10:19:09;;;;;;;4.50;1.65;;;8.00;46.70;;;;;;5063531;28;20087;-82
2022/02/08 10:21:48;;;;;;;4.15;1.02;;;8.20;45.90;;;;;;5069667;28;20024;-81
2022/02/08 10:24:18;;;;;;;5.30;2.05;;;8.30;46.10;;;;;;5073633;28;20033;-81
2022/02/08 10:37:43;;;;;;;3.75;0.60;;;9.10;43.70;;;;;;5064527;28;20024;-82
2022/02/08 10:40:10;;;;;;;;;;;9.00;43.60;;;;;;5047831;28;20025;-83
2022/02/08 10:42:38;;;;;;;2.92;0.80;;;9.00;43.90;;;;;;5050053;28;19908;-81
2022/02/08 10:45:17;;;;;;;4.15;0.60;;;8.80;43.90;;;;;;5050726;28;20025;-82
2022/02/08 10:47:45;;;;;;;1.30;0.70;;;8.60;44.50;;;;;;5048531;28;20032;-84
2022/02/08 10:50:12;;;;;;;1.50;0.70;;;8.50;44.90;;;;;;5065154;28;20021;-81
2022/02/08 10:52:41;;;;;;;2.72;1.00;;;8.30;45.60;;;;;;5076248;28;20063;-81
2022/02/08 10:55:20;;;;;;;3.03;0.82;;;8.20;46.80;;;;;;5049070;28;20171;-83
2022/02/08 10:57:54;;;;;;;2.63;0.40;;;8.20;46.80;;;;;;5047087;28;20025;-81
2022/02/08 11:00:28;;;;;;;0.65;0.50;;;8.10;47.50;;;;;;5059840;28;20017;-82
2022/02/08 11:02:56;;;;;;;0.63;0.57;;;8.10;47.30;;;;;;5063043;28;20028;-81
2022/02/08 11:05:49;;;;;;;1.00;0.50;;;8.10;47.40;;;;;;5066724;28;20088;-82
2022/02/08 11:11:04;;;;;;;1.92;0.80;;;8.40;46.90;;;;;;5067445;28;20437;-85
2022/02/08 11:14:03;;;;;;;1.02;0.50;;;8.60;46.90;;;;;;5049875;28;20036;-85
2022/02/08 11:16:42;;;;;;;2.20;1.00;;;8.70;46.10;;;;;;5066352;28;20387;-85
2022/02/08 11:19:35;;;;;;;2.40;0.75;;;8.70;45.60;;;;;;5055167;28;20033;-83
2022/02/08 11:22:10;;;;;;;2.40;0.63;;;8.60;45.40;;;;;;5045830;28;20021;-82
2022/02/08 11:24:45;;;;;;;3.50;0.90;;;8.50;45.10;;;;;;5037522;28;20022;-82
2022/02/08 11:27:16;;;;;;;2.63;0.80;;;8.50;45.20;;;;;;5044094;28;20452;-82
2022/02/08 11:30:00;;;;;;;2.90;0.90;;;8.60;45.20;;;;;;5067237;28;20511;-81
2022/02/08 11:46:10;;;;;;;1.63;0.95;;;9.00;44.30;;;;;;5061936;28;20024;-82
2022/02/08 11:49:22;;;;;;;2.42;0.77;;;9.10;43.70;;;;;;5044209;28;20024;-82
2022/02/08 11:59:55;;;;;;;1.10;0.70;;;10.00;43.10;;;;;;5061306;28;20032;-83
2022/02/08 12:07:48;;;;;;;1.77;0.70;;;9.70;42.60;;;;;;5061415;28;20037;-82
2022/02/08 12:10:25;;;;;;;4.32;0.60;;;9.60;42.00;;;;;;5043278;28;20053;-81
2022/02/08 12:28:07;;;;;;;0.47;0.47;;;9.80;43.00;;;;;;5060846;28;20114;-81
2022/02/08 12:32:37;;;;;;;2.38;0.40;;;9.90;43.00;;;;;;5066850;28;20085;-82
2022/02/08 12:57:46;;;;;;;1.50;0.52;;;11.00;39.30;;;;;;5061097;28;20033;-80
2022/02/08 13:03:20;;;;;;;1.48;0.40;;;10.90;39.90;;;;;;5123995;22;20131;-80
2022/02/08 14:03:57;;;;;;;1.83;0.45;;;11.50;41.60;;;;;;5047796;28;20040;-83
2022/02/08 14:06:55;;;;;;;1.13;0.47;;;11.50;42.20;;;;;;5057618;28;20120;-79
2022/02/08 14:19:45;;;;;;;2.13;0.60;;;11.50;41.50;;;;;;5045854;28;20040;-81
2022/02/08 14:25:16;;;;;;;4.65;0.77;;;11.60;41.40;;;;;;5048429;28;20312;-79
2022/02/08 14:31:27;;;;;;;0.63;0.45;;;11.20;42.30;;;;;;5043825;28;20441;-79
2022/02/08 14:58:42;;;;;;;0.85;0.50;;;10.10;44.60;;;;;;5051798;28;20060;-80
2022/02/08 15:05:25;;;;;;;0.63;0.40;;;10.10;44.80;;;;;;5046924;28;20038;-79
2022/02/08 15:08:25;;;;;;;1.85;0.55;;;10.20;44.70;;;;;;5062078;28;20064;-80
2022/02/08 15:11:01;;;;;;;1.20;0.47;;;10.20;44.50;;;;;;5050184;28;20083;-80
2022/02/08 15:13:27;;;;;;;1.15;0.60;;;10.10;44.80;;;;;;5045496;28;20017;-83
2022/02/08 15:18:38;;;;;;;0.65;0.47;;;10.00;44.70;;;;;;5044269;28;20064;-80
2022/02/08 15:21:06;;;;;;;2.65;0.55;;;10.00;44.30;;;;;;5044599;28;20030;-82
2022/02/08 15:23:32;;;;;;;1.83;1.00;;;10.10;44.10;;;;;;5031748;28;20037;-81
2022/02/08 15:25:59;;;;;;;0.30;0.30;;;10.10;44.30;;;;;;5049290;28;20025;-82
2022/02/08 15:28:26;;;;;;;2.95;0.70;;;10.10;44.70;;;;;;5032402;28;20028;-79
2022/02/08 15:30:53;;;;;;;9.38;6.57;;;10.10;44.80;;;;;;5027231;28;20017;-79
2022/02/08 15:33:20;;;;;;;17.40;11.00;;;10.00;45.10;;;;;;4996360;28;20072;-77
2022/02/08 15:35:46;;;;;;;64.45;36.88;;;10.00;45.30;;;;;;5061249;28;20028;-77
2022/02/08 15:38:12;;;;;;;26.02;15.60;;;9.90;45.20;;;;;;5039608;28;20033;-78
2022/02/08 15:40:38;;;;;;;12.13;7.00;;;9.80;45.60;;;;;;5026350;28;20118;-78
2022/02/08 15:43:04;;;;;;;13.35;9.13;;;9.70;45.40;;;;;;5043589;28;20025;-78
2022/02/08 15:45:35;;;;;;;3.25;2.80;;;9.60;45.70;;;;;;5041940;28;20554;-79
2022/02/08 15:48:00;;;;;;;1.85;0.60;;;9.60;45.70;;;;;;5026325;28;20044;-79
2022/02/08 15:50:46;;;;;;;0.40;0.40;;;9.50;46.00;;;;;;5042929;28;20060;-80
2022/02/08 15:58:18;;;;;;;0.47;0.40;;;9.40;46.30;;;;;;5043114;28;20030;-79
2022/02/08 16:08:39;;;;;;;1.58;0.50;;;9.30;47.00;;;;;;5065869;28;20021;-79
2022/02/08 16:13:47;;;;;;;0.70;0.50;;;9.20;47.50;;;;;;5043425;28;20362;-79
2022/02/08 16:16:23;;;;;;;1.15;0.30;;;9.10;47.80;;;;;;5046948;28;20048;-80
2022/02/08 16:19:15;;;;;;;4.35;0.47;;;9.20;47.60;;;;;;5042751;28;20025;-77
2022/02/08 16:30:20;;;;;;;3.00;0.70;;;8.90;48.30;;;;;;5026919;28;20033;-79
2022/02/08 16:59:37;;;;;;;2.00;0.60;;;8.30;48.60;;;;;;5034193;28;20030;-79
2022/02/08 17:02:05;;;;;;;2.83;2.63;;;8.30;48.40;;;;;;5017668;28;20032;-80
2022/02/08 17:04:32;;;;;;;17.88;12.13;;;8.30;48.30;;;;;;5063073;28;20036;-79
2022/02/08 17:06:59;;;;;;;6.47;2.00;;;8.30;48.50;;;;;;5074954;28;20036;-79
2022/02/08 17:09:48;;;;;;;13.10;10.30;;;8.30;48.50;;;;;;5062355;28;20034;-79
2022/02/08 17:12:25;;;;;;;17.15;13.70;;;8.30;49.00;;;;;;5040321;28;20041;-80
2022/02/08 17:34:29;;;;;;;2.20;1.30;;;8.00;50.60;;;;;;5046074;28;20108;-80
2022/02/08 17:47:31;;;;;;;3.30;1.10;;;6.80;54.90;;;;;;5043194;28;20088;-79
2022/02/08 17:49:58;;;;;;;1.83;1.17;;;6.80;55.20;;;;;;5039076;28;20544;-79
2022/02/08 17:52:23;;;;;;;2.95;1.10;;;6.80;55.40;;;;;;5037718;28;20056;-80
2022/02/08 17:54:49;;;;;;;5.95;2.35;;;6.70;55.60;;;;;;5039411;28;20025;-78
2022/02/08 17:57:16;;;;;;;3.70;1.88;;;6.70;56.00;;;;;;5039479;28;20033;-79
2022/02/08 17:59:41;;;;;;;3.80;1.67;;;6.60;56.20;;;;;;5038147;28;20030;-77
2022/02/08 18:02:10;;;;;;;4.57;1.17;;;6.60;56.40;;;;;;5039958;28;20095;-77
2022/02/08 18:04:39;;;;;;;5.43;1.38;;;6.60;56.70;;;;;;5051368;28;20128;-79
2022/02/08 18:07:05;;;;;;;2.53;1.30;;;6.50;57.00;;;;;;5073973;28;20059;-78
2022/02/08 18:09:33;;;;;;;3.03;1.08;;;6.50;57.20;;;;;;5048791;28;20120;-77
2022/02/08 18:12:01;;;;;;;1.95;1.08;;;6.50;57.40;;;;;;5070006;28;20013;-79
2022/02/08 18:14:28;;;;;;;1.98;1.50;;;6.40;58.30;;;;;;5052001;28;20079;-78
2022/02/08 18:17:09;;;;;;;5.05;1.48;;;6.30;57.80;;;;;;5049915;28;20026;-79
2022/02/08 18:19:39;;;;;;;3.22;1.75;;;6.30;58.10;;;;;;5031123;28;20033;-79
2022/02/08 18:22:31;;;;;;;3.47;1.77;;;6.30;58.60;;;;;;5034689;28;20036;-78
2022/02/08 18:57:32;;;;;;;2.53;1.60;;;5.80;61.60;;;;;;5056846;28;20036;-76
2022/02/08 19:16:23;;;;;;;2.58;1.35;;;5.70;64.20;;;;;;5048440;28;20026;-81
2022/02/08 19:23:52;;;;;;;3.95;1.70;;;5.60;64.80;;;;;;5046970;28;20085;-81
2022/02/08 19:26:18;;;;;;;2.53;1.80;;;5.70;64.80;;;;;;5047035;28;20033;-81
2022/02/08 19:28:46;;;;;;;3.35;1.77;;;5.70;64.60;;;;;;5044255;28;20030;-83
2022/02/08 19:31:12;;;;;;;2.45;1.80;;;5.60;64.40;;;;;;5040284;28;20101;-83
2022/02/08 19:33:38;;;;;;;4.88;2.20;;;5.60;64.30;;;;;;5039689;28;20032;-82
2022/02/08 19:36:05;;;;;;;4.35;1.75;;;5.60;64.10;;;;;;5047052;28;20049;-82
2022/02/08 19:38:37;;;;;;;1.70;1.25;;;5.60;63.90;;;;;;5058287;28;20025;-83
2022/02/08 19:41:03;;;;;;;3.20;1.52;;;5.50;63.60;;;;;;5038153;28;20041;-83
2022/02/08 19:43:28;;;;;;;3.38;1.45;;;5.50;63.50;;;;;;5039522;28;20033;-83
2022/02/08 19:45:54;;;;;;;2.88;1.60;;;5.50;63.30;;;;;;5054881;28;20090;-83
2022/02/08 19:48:20;;;;;;;2.22;1.20;;;5.40;63.10;;;;;;5040631;28;20497;-84
2022/02/08 19:50:47;;;;;;;2.38;1.45;;;5.40;62.80;;;;;;5042397;28;20049;-82
2022/02/08 19:53:13;;;;;;;2.85;1.50;;;5.40;62.60;;;;;;5044350;28;20405;-83
2022/02/08 19:58:27;;;;;;;3.90;2.60;;;5.30;62.60;;;;;;5049066;28;20136;-82
2022/02/08 20:01:15;;;;;;;8.82;4.35;;;5.20;62.20;;;;;;5040846;28;20450;-83
2022/02/08 20:03:51;;;;;;;10.95;5.40;;;5.20;62.20;;;;;;5044704;28;20029;-82
2022/02/08 20:06:17;;;;;;;9.60;4.60;;;5.20;62.30;;;;;;5057330;28;20079;-81
2022/02/08 20:08:43;;;;;;;7.78;4.10;;;5.10;62.30;;;;;;5046278;28;20101;-83
2022/02/08 20:11:09;;;;;;;6.13;3.35;;;5.10;62.30;;;;;;5039975;28;20029;-82
2022/02/08 20:13:35;;;;;;;8.48;3.05;;;5.10;62.30;;;;;;5038143;28;20032;-83
2022/02/08 20:16:01;;;;;;;9.98;3.50;;;5.10;62.30;;;;;;5039201;28;20453;-84
2022/02/08 20:18:28;;;;;;;9.27;4.40;;;5.10;62.40;;;;;;5038343;28;20625;-83
2022/02/08 20:20:56;;;;;;;10.70;4.15;;;5.10;62.40;;;;;;5036730;28;20440;-83
2022/02/08 20:23:22;;;;;;;8.25;4.13;;;5.00;62.30;;;;;;5035711;28;20060;-83
2022/02/08 20:25:51;;;;;;;5.95;2.97;;;5.00;62.30;;;;;;5042629;28;20033;-82
2022/02/08 20:28:50;;;;;;;5.40;2.55;;;5.00;62.20;;;;;;5042241;28;20025;-85
2022/02/08 20:31:05;;;;;;;5.13;2.65;;;5.00;62.20;;;;;;5038564;28;20029;-85
2022/02/08 20:33:31;;;;;;;4.25;2.45;;;4.90;62.30;;;;;;5045310;28;20549;-85
2022/02/08 20:35:57;;;;;;;3.80;2.03;;;4.90;62.30;;;;;;5032836;28;20025;-84
2022/02/08 20:38:23;;;;;;;3.05;1.70;;;4.90;62.30;;;;;;5023712;28;20444;-86
2022/02/08 20:40:52;;;;;;;4.60;1.83;;;4.80;62.20;;;;;;5020951;28;20366;-85
2022/02/08 20:43:19;;;;;;;2.53;1.73;;;4.80;62.30;;;;;;5035800;28;20036;-84
2022/02/08 20:45:45;;;;;;;3.10;1.58;;;4.80;62.20;;;;;;5021582;28;20064;-85